sensor_id;sensor_type;location;lat;lon;timestamp;P1;durP1;ratioP1;P2;durP2;ratioP2
77417;SDS011;66490;51.484;0.026;2023-04-03T00:01:50;7.75;;;2.15;;
77417;SDS011;66490;51.484;0.026;2023-04-03T00:04:34;8.20;;;2.33;;
77417;SDS011;66490;51.484;0.026;2023-04-03T00:07:18;7.93;;;2.45;;
77417;SDS011;66490;51.484;0.026;2023-04-03T00:10:03;9.02;;;2.33;;
77417;SDS011;66490;51.484;0.026;2023-04-03T00:12:48;9.38;;;2.50;;
77417;SDS011;66490;51.484;0.026;2023-04-03T00:15:32;14.25;;;2.50;;
77417;SDS011;66490;51.484;0.026;2023-04-03T00:18:16;9.60;;;2.47;;
77417;SDS011;66490;51.484;0.026;2023-04-03T00:21:00;7.18;;;1.90;;
77417;SDS011;66490;51.484;0.026;2023-04-03T00:23:45;6.57;;;1.30;;
77417;SDS011;66490;51.484;0.026;2023-04-03T00:26:29;7.20;;;2.03;;
77417;SDS011;66490;51.484;0.026;2023-04-03T00:29:13;9.15;;;2.38;;
77417;SDS011;66490;51.484;0.026;2023-04-03T00:31:57;8.60;;;1.63;;
77417;SDS011;66490;51.484;0.026;2023-04-03T00:34:41;10.32;;;1.75;;
77417;SDS011;66490;51.484;0.026;2023-04-03T00:37:25;7.43;;;1.98;;
77417;SDS011;66490;51.484;0.026;2023-04-03T00:40:09;7.25;;;1.92;;
77417;SDS011;66490;51.484;0.026;2023-04-03T00:42:58;7.80;;;2.13;;
77417;SDS011;66490;51.484;0.026;2023-04-03T00:45:43;9.03;;;1.57;;
77417;SDS011;66490;51.484;0.026;2023-04-03T00:48:29;7.18;;;1.88;;
77417;SDS011;66490;51.484;0.026;2023-04-03T00:51:16;6.72;;;1.90;;
77417;SDS011;66490;51.484;0.026;2023-04-03T00:54:02;11.23;;;2.50;;
77417;SDS011;66490;51.484;0.026;2023-04-03T00:56:49;17.05;;;2.28;;
77417;SDS011;66490;51.484;0.026;2023-04-03T00:59:35;6.67;;;2.63;;
77417;SDS011;66490;51.484;0.026;2023-04-03T01:02:22;7.05;;;1.90;;
77417;SDS011;66490;51.484;0.026;2023-04-03T01:05:10;7.82;;;1.90;;
77417;SDS011;66490;51.484;0.026;2023-04-03T01:07:54;5.90;;;1.50;;
77417;SDS011;66490;51.484;0.026;2023-04-03T01:10:39;10.85;;;2.10;;
77417;SDS011;66490;51.484;0.026;2023-04-03T01:13:29;13.27;;;2.27;;
77417;SDS011;66490;51.484;0.026;2023-04-03T01:16:13;14.15;;;2.20;;
77417;SDS011;66490;51.484;0.026;2023-04-03T01:18:57;7.65;;;2.00;;
77417;SDS011;66490;51.484;0.026;2023-04-03T01:21:47;9.50;;;2.65;;
77417;SDS011;66490;51.484;0.026;2023-04-03T01:24:35;9.80;;;2.30;;
77417;SDS011;66490;51.484;0.026;2023-04-03T01:27:19;6.77;;;1.97;;
77417;SDS011;66490;51.484;0.026;2023-04-03T01:30:03;11.38;;;1.98;;
77417;SDS011;66490;51.484;0.026;2023-04-03T01:32:48;11.43;;;2.00;;
77417;SDS011;66490;51.484;0.026;2023-04-03T01:35:32;9.43;;;2.83;;
77417;SDS011;66490;51.484;0.026;2023-04-03T01:38:16;10.45;;;2.03;;
77417;SDS011;66490;51.484;0.026;2023-04-03T01:41:00;9.00;;;1.73;;
77417;SDS011;66490;51.484;0.026;2023-04-03T01:43:44;7.00;;;1.77;;
77417;SDS011;66490;51.484;0.026;2023-04-03T01:46:28;7.47;;;2.00;;
77417;SDS011;66490;51.484;0.026;2023-04-03T01:49:15;6.07;;;1.90;;
77417;SDS011;66490;51.484;0.026;2023-04-03T01:51:59;8.90;;;1.85;;
77417;SDS011;66490;51.484;0.026;2023-04-03T01:54:43;10.57;;;2.30;;
77417;SDS011;66490;51.484;0.026;2023-04-03T01:57:27;14.63;;;2.63;;
77417;SDS011;66490;51.484;0.026;2023-04-03T02:00:11;10.20;;;2.22;;
77417;SDS011;66490;51.484;0.026;2023-04-03T02:02:55;8.43;;;2.00;;
77417;SDS011;66490;51.484;0.026;2023-04-03T02:05:39;12.02;;;1.92;;
77417;SDS011;66490;51.484;0.026;2023-04-03T02:08:23;8.10;;;2.20;;
77417;SDS011;66490;51.484;0.026;2023-04-03T02:11:07;8.00;;;2.45;;
77417;SDS011;66490;51.484;0.026;2023-04-03T02:13:51;7.50;;;2.45;;
77417;SDS011;66490;51.484;0.026;2023-04-03T02:16:35;8.50;;;1.70;;
77417;SDS011;66490;51.484;0.026;2023-04-03T02:19:19;10.95;;;2.35;;
77417;SDS011;66490;51.484;0.026;2023-04-03T02:22:04;9.23;;;1.73;;
77417;SDS011;66490;51.484;0.026;2023-04-03T02:24:48;12.75;;;2.42;;
77417;SDS011;66490;51.484;0.026;2023-04-03T02:27:35;8.95;;;1.85;;
77417;SDS011;66490;51.484;0.026;2023-04-03T02:30:19;10.70;;;2.15;;
77417;SDS011;66490;51.484;0.026;2023-04-03T02:33:03;8.57;;;1.80;;
77417;SDS011;66490;51.484;0.026;2023-04-03T02:35:47;9.97;;;2.33;;
77417;SDS011;66490;51.484;0.026;2023-04-03T02:38:36;9.30;;;2.05;;
77417;SDS011;66490;51.484;0.026;2023-04-03T02:41:20;10.30;;;2.03;;
77417;SDS011;66490;51.484;0.026;2023-04-03T02:44:05;7.25;;;1.83;;
77417;SDS011;66490;51.484;0.026;2023-04-03T02:46:50;5.90;;;1.60;;
77417;SDS011;66490;51.484;0.026;2023-04-03T02:49:34;5.33;;;1.73;;
77417;SDS011;66490;51.484;0.026;2023-04-03T02:52:18;7.00;;;2.17;;
77417;SDS011;66490;51.484;0.026;2023-04-03T02:55:02;7.30;;;1.98;;
77417;SDS011;66490;51.484;0.026;2023-04-03T02:57:47;4.55;;;1.63;;
77417;SDS011;66490;51.484;0.026;2023-04-03T03:00:31;9.63;;;1.83;;
77417;SDS011;66490;51.484;0.026;2023-04-03T03:03:15;6.63;;;1.60;;
77417;SDS011;66490;51.484;0.026;2023-04-03T03:08:46;6.28;;;1.75;;
77417;SDS011;66490;51.484;0.026;2023-04-03T03:11:30;8.82;;;2.03;;
77417;SDS011;66490;51.484;0.026;2023-04-03T03:14:14;8.40;;;2.60;;
77417;SDS011;66490;51.484;0.026;2023-04-03T03:16:59;8.60;;;1.67;;
77417;SDS011;66490;51.484;0.026;2023-04-03T03:19:43;7.88;;;2.20;;
77417;SDS011;66490;51.484;0.026;2023-04-03T03:22:27;9.57;;;2.15;;
77417;SDS011;66490;51.484;0.026;2023-04-03T03:25:12;14.80;;;2.78;;
77417;SDS011;66490;51.484;0.026;2023-04-03T03:27:56;11.45;;;2.78;;
77417;SDS011;66490;51.484;0.026;2023-04-03T03:30:40;9.83;;;2.10;;
77417;SDS011;66490;51.484;0.026;2023-04-03T03:33:24;8.07;;;2.10;;
77417;SDS011;66490;51.484;0.026;2023-04-03T03:36:09;8.68;;;2.10;;
77417;SDS011;66490;51.484;0.026;2023-04-03T03:38:53;12.20;;;3.33;;
77417;SDS011;66490;51.484;0.026;2023-04-03T03:41:37;11.73;;;2.13;;
77417;SDS011;66490;51.484;0.026;2023-04-03T03:44:21;7.63;;;2.20;;
77417;SDS011;66490;51.484;0.026;2023-04-03T03:47:05;5.28;;;2.13;;
77417;SDS011;66490;51.484;0.026;2023-04-03T03:49:49;9.15;;;2.08;;
77417;SDS011;66490;51.484;0.026;2023-04-03T03:52:33;10.32;;;2.28;;
77417;SDS011;66490;51.484;0.026;2023-04-03T03:55:17;11.38;;;2.03;;
77417;SDS011;66490;51.484;0.026;2023-04-03T03:58:01;7.93;;;2.47;;
77417;SDS011;66490;51.484;0.026;2023-04-03T04:00:45;9.30;;;2.47;;
77417;SDS011;66490;51.484;0.026;2023-04-03T04:03:29;7.30;;;1.92;;
77417;SDS011;66490;51.484;0.026;2023-04-03T04:06:14;10.48;;;2.83;;
77417;SDS011;66490;51.484;0.026;2023-04-03T04:08:58;13.40;;;2.33;;
77417;SDS011;66490;51.484;0.026;2023-04-03T04:11:42;9.90;;;2.27;;
77417;SDS011;66490;51.484;0.026;2023-04-03T04:14:26;11.75;;;2.50;;
77417;SDS011;66490;51.484;0.026;2023-04-03T04:17:10;7.97;;;2.28;;
77417;SDS011;66490;51.484;0.026;2023-04-03T04:19:54;5.90;;;2.70;;
77417;SDS011;66490;51.484;0.026;2023-04-03T04:22:38;10.10;;;2.40;;
77417;SDS011;66490;51.484;0.026;2023-04-03T04:25:22;9.07;;;2.47;;
77417;SDS011;66490;51.484;0.026;2023-04-03T04:28:06;6.55;;;2.35;;
77417;SDS011;66490;51.484;0.026;2023-04-03T04:30:50;7.90;;;2.50;;
77417;SDS011;66490;51.484;0.026;2023-04-03T04:33:34;6.45;;;2.20;;
77417;SDS011;66490;51.484;0.026;2023-04-03T04:36:19;7.38;;;1.88;;
77417;SDS011;66490;51.484;0.026;2023-04-03T04:39:03;6.90;;;2.40;;
77417;SDS011;66490;51.484;0.026;2023-04-03T04:41:47;6.47;;;2.20;;
77417;SDS011;66490;51.484;0.026;2023-04-03T04:44:31;8.13;;;2.67;;
77417;SDS011;66490;51.484;0.026;2023-04-03T04:47:15;9.32;;;2.28;;
77417;SDS011;66490;51.484;0.026;2023-04-03T04:49:59;10.98;;;3.17;;
77417;SDS011;66490;51.484;0.026;2023-04-03T04:52:46;10.53;;;2.57;;
77417;SDS011;66490;51.484;0.026;2023-04-03T04:55:30;9.18;;;2.65;;
77417;SDS011;66490;51.484;0.026;2023-04-03T04:58:14;8.05;;;2.53;;
77417;SDS011;66490;51.484;0.026;2023-04-03T05:01:02;7.25;;;2.25;;
77417;SDS011;66490;51.484;0.026;2023-04-03T05:03:46;9.27;;;2.45;;
77417;SDS011;66490;51.484;0.026;2023-04-03T05:06:31;5.73;;;2.80;;
77417;SDS011;66490;51.484;0.026;2023-04-03T05:09:15;7.95;;;2.13;;
77417;SDS011;66490;51.484;0.026;2023-04-03T05:11:59;8.73;;;2.33;;
77417;SDS011;66490;51.484;0.026;2023-04-03T05:14:43;9.90;;;2.80;;
77417;SDS011;66490;51.484;0.026;2023-04-03T05:17:27;7.20;;;2.40;;
77417;SDS011;66490;51.484;0.026;2023-04-03T05:20:11;6.47;;;2.73;;
77417;SDS011;66490;51.484;0.026;2023-04-03T05:22:55;7.47;;;2.75;;
77417;SDS011;66490;51.484;0.026;2023-04-03T05:25:40;9.23;;;2.72;;
77417;SDS011;66490;51.484;0.026;2023-04-03T05:28:24;9.30;;;3.05;;
77417;SDS011;66490;51.484;0.026;2023-04-03T05:31:08;11.55;;;3.35;;
77417;SDS011;66490;51.484;0.026;2023-04-03T05:33:52;13.57;;;2.90;;
77417;SDS011;66490;51.484;0.026;2023-04-03T05:36:36;11.88;;;2.45;;
77417;SDS011;66490;51.484;0.026;2023-04-03T05:39:20;11.48;;;2.70;;
77417;SDS011;66490;51.484;0.026;2023-04-03T05:42:04;12.10;;;2.75;;
77417;SDS011;66490;51.484;0.026;2023-04-03T05:44:48;11.52;;;2.63;;
77417;SDS011;66490;51.484;0.026;2023-04-03T05:47:33;12.93;;;3.50;;
77417;SDS011;66490;51.484;0.026;2023-04-03T05:50:17;7.78;;;2.22;;
77417;SDS011;66490;51.484;0.026;2023-04-03T05:53:01;9.45;;;2.78;;
77417;SDS011;66490;51.484;0.026;2023-04-03T05:55:46;10.18;;;2.60;;
77417;SDS011;66490;51.484;0.026;2023-04-03T05:58:30;8.65;;;3.20;;
77417;SDS011;66490;51.484;0.026;2023-04-03T06:01:14;11.97;;;2.23;;
77417;SDS011;66490;51.484;0.026;2023-04-03T06:03:59;9.18;;;3.03;;
77417;SDS011;66490;51.484;0.026;2023-04-03T06:09:28;9.80;;;3.20;;
77417;SDS011;66490;51.484;0.026;2023-04-03T06:12:17;12.10;;;2.90;;
77417;SDS011;66490;51.484;0.026;2023-04-03T06:15:01;11.27;;;3.60;;
77417;SDS011;66490;51.484;0.026;2023-04-03T06:17:45;8.00;;;2.70;;
77417;SDS011;66490;51.484;0.026;2023-04-03T06:20:29;8.73;;;2.65;;
77417;SDS011;66490;51.484;0.026;2023-04-03T06:23:14;9.90;;;3.17;;
77417;SDS011;66490;51.484;0.026;2023-04-03T06:25:58;11.80;;;3.42;;
77417;SDS011;66490;51.484;0.026;2023-04-03T06:28:43;6.70;;;2.17;;
77417;SDS011;66490;51.484;0.026;2023-04-03T06:31:27;8.05;;;2.10;;
77417;SDS011;66490;51.484;0.026;2023-04-03T06:34:11;8.95;;;2.25;;
77417;SDS011;66490;51.484;0.026;2023-04-03T06:36:56;9.10;;;2.92;;
77417;SDS011;66490;51.484;0.026;2023-04-03T06:39:40;8.98;;;2.83;;
77417;SDS011;66490;51.484;0.026;2023-04-03T06:42:24;9.13;;;3.00;;
77417;SDS011;66490;51.484;0.026;2023-04-03T06:45:08;6.18;;;1.98;;
77417;SDS011;66490;51.484;0.026;2023-04-03T06:47:53;10.85;;;3.30;;
77417;SDS011;66490;51.484;0.026;2023-04-03T06:50:38;8.60;;;2.22;;
77417;SDS011;66490;51.484;0.026;2023-04-03T06:53:22;7.40;;;2.50;;
77417;SDS011;66490;51.484;0.026;2023-04-03T06:56:05;10.97;;;2.80;;
77417;SDS011;66490;51.484;0.026;2023-04-03T06:58:49;8.85;;;2.50;;
77417;SDS011;66490;51.484;0.026;2023-04-03T07:01:35;8.07;;;3.50;;
77417;SDS011;66490;51.484;0.026;2023-04-03T07:04:19;11.52;;;2.85;;
77417;SDS011;66490;51.484;0.026;2023-04-03T07:07:04;9.40;;;2.78;;
77417;SDS011;66490;51.484;0.026;2023-04-03T07:09:48;10.63;;;2.93;;
77417;SDS011;66490;51.484;0.026;2023-04-03T07:12:33;14.30;;;3.47;;
77417;SDS011;66490;51.484;0.026;2023-04-03T07:15:17;10.30;;;3.17;;
77417;SDS011;66490;51.484;0.026;2023-04-03T07:18:07;11.45;;;3.00;;
77417;SDS011;66490;51.484;0.026;2023-04-03T07:20:51;11.20;;;3.30;;
77417;SDS011;66490;51.484;0.026;2023-04-03T07:23:35;16.13;;;3.97;;
77417;SDS011;66490;51.484;0.026;2023-04-03T07:26:19;8.95;;;2.47;;
77417;SDS011;66490;51.484;0.026;2023-04-03T07:29:04;8.25;;;3.10;;
77417;SDS011;66490;51.484;0.026;2023-04-03T07:31:49;12.77;;;3.85;;
77417;SDS011;66490;51.484;0.026;2023-04-03T07:34:33;13.85;;;3.72;;
77417;SDS011;66490;51.484;0.026;2023-04-03T07:37:16;7.57;;;2.73;;
77417;SDS011;66490;51.484;0.026;2023-04-03T07:40:02;9.65;;;3.30;;
77417;SDS011;66490;51.484;0.026;2023-04-03T07:42:47;16.60;;;3.97;;
77417;SDS011;66490;51.484;0.026;2023-04-03T07:45:31;15.48;;;3.58;;
77417;SDS011;66490;51.484;0.026;2023-04-03T07:48:16;12.65;;;3.70;;
77417;SDS011;66490;51.484;0.026;2023-04-03T07:51:01;11.57;;;4.27;;
77417;SDS011;66490;51.484;0.026;2023-04-03T07:53:45;9.45;;;3.58;;
77417;SDS011;66490;51.484;0.026;2023-04-03T07:56:29;9.55;;;3.42;;
77417;SDS011;66490;51.484;0.026;2023-04-03T07:59:14;12.50;;;3.42;;
77417;SDS011;66490;51.484;0.026;2023-04-03T08:01:58;11.70;;;3.30;;
77417;SDS011;66490;51.484;0.026;2023-04-03T08:04:42;12.30;;;3.60;;
77417;SDS011;66490;51.484;0.026;2023-04-03T08:07:26;16.30;;;3.70;;
77417;SDS011;66490;51.484;0.026;2023-04-03T08:10:10;10.85;;;4.00;;
77417;SDS011;66490;51.484;0.026;2023-04-03T08:12:54;11.18;;;3.47;;
77417;SDS011;66490;51.484;0.026;2023-04-03T08:15:38;15.13;;;4.57;;
77417;SDS011;66490;51.484;0.026;2023-04-03T08:18:23;12.67;;;3.50;;
77417;SDS011;66490;51.484;0.026;2023-04-03T08:21:08;12.15;;;4.03;;
77417;SDS011;66490;51.484;0.026;2023-04-03T08:23:52;10.63;;;3.97;;
77417;SDS011;66490;51.484;0.026;2023-04-03T08:26:37;14.05;;;4.25;;
77417;SDS011;66490;51.484;0.026;2023-04-03T08:29:21;9.40;;;3.45;;
77417;SDS011;66490;51.484;0.026;2023-04-03T08:32:05;10.30;;;3.83;;
77417;SDS011;66490;51.484;0.026;2023-04-03T08:34:49;11.15;;;4.03;;
77417;SDS011;66490;51.484;0.026;2023-04-03T08:37:37;13.60;;;4.38;;
77417;SDS011;66490;51.484;0.026;2023-04-03T08:40:21;15.00;;;3.97;;
77417;SDS011;66490;51.484;0.026;2023-04-03T08:46:23;11.47;;;3.90;;
77417;SDS011;66490;51.484;0.026;2023-04-03T08:52:19;12.20;;;4.70;;
77417;SDS011;66490;51.484;0.026;2023-04-03T08:55:05;16.33;;;5.20;;
77417;SDS011;66490;51.484;0.026;2023-04-03T08:57:53;17.40;;;4.10;;
77417;SDS011;66490;51.484;0.026;2023-04-03T09:00:44;11.93;;;5.13;;
77417;SDS011;66490;51.484;0.026;2023-04-03T09:03:30;13.23;;;5.22;;
77417;SDS011;66490;51.484;0.026;2023-04-03T09:06:22;14.27;;;4.55;;
77417;SDS011;66490;51.484;0.026;2023-04-03T09:17:47;11.88;;;4.63;;
77417;SDS011;66490;51.484;0.026;2023-04-03T09:23:57;12.60;;;4.25;;
77417;SDS011;66490;51.484;0.026;2023-04-03T09:29:27;11.60;;;4.83;;
77417;SDS011;66490;51.484;0.026;2023-04-03T09:32:18;14.10;;;4.72;;
77417;SDS011;66490;51.484;0.026;2023-04-03T09:35:03;13.55;;;4.75;;
77417;SDS011;66490;51.484;0.026;2023-04-03T09:37:49;11.88;;;4.28;;
77417;SDS011;66490;51.484;0.026;2023-04-03T09:40:37;9.57;;;4.57;;
77417;SDS011;66490;51.484;0.026;2023-04-03T09:43:31;11.67;;;4.07;;
77417;SDS011;66490;51.484;0.026;2023-04-03T09:46:26;11.60;;;4.70;;
77417;SDS011;66490;51.484;0.026;2023-04-03T09:49:12;9.48;;;4.65;;
77417;SDS011;66490;51.484;0.026;2023-04-03T09:51:56;9.48;;;4.00;;
77417;SDS011;66490;51.484;0.026;2023-04-03T09:54:40;13.00;;;4.20;;
77417;SDS011;66490;51.484;0.026;2023-04-03T09:57:28;12.57;;;4.57;;
77417;SDS011;66490;51.484;0.026;2023-04-03T10:00:23;11.82;;;3.85;;
77417;SDS011;66490;51.484;0.026;2023-04-03T10:03:25;9.60;;;3.80;;
77417;SDS011;66490;51.484;0.026;2023-04-03T10:06:21;8.25;;;3.70;;
77417;SDS011;66490;51.484;0.026;2023-04-03T10:09:15;6.90;;;3.78;;
77417;SDS011;66490;51.484;0.026;2023-04-03T10:12:10;14.50;;;4.73;;
77417;SDS011;66490;51.484;0.026;2023-04-03T10:14:56;10.57;;;4.53;;
77417;SDS011;66490;51.484;0.026;2023-04-03T10:17:53;10.45;;;4.28;;
77417;SDS011;66490;51.484;0.026;2023-04-03T10:20:43;12.88;;;4.63;;
77417;SDS011;66490;51.484;0.026;2023-04-03T10:23:39;11.15;;;4.53;;
77417;SDS011;66490;51.484;0.026;2023-04-03T10:47:11;7.80;;;4.00;;
77417;SDS011;66490;51.484;0.026;2023-04-03T10:53:21;8.00;;;4.85;;
77417;SDS011;66490;51.484;0.026;2023-04-03T10:58:56;7.00;;;4.15;;
77417;SDS011;66490;51.484;0.026;2023-04-03T11:01:42;7.85;;;4.05;;
77417;SDS011;66490;51.484;0.026;2023-04-03T11:04:28;6.75;;;3.70;;
77417;SDS011;66490;51.484;0.026;2023-04-03T11:07:21;7.78;;;4.43;;
77417;SDS011;66490;51.484;0.026;2023-04-03T11:10:13;7.73;;;3.90;;
77417;SDS011;66490;51.484;0.026;2023-04-03T11:13:06;6.28;;;3.60;;
77417;SDS011;66490;51.484;0.026;2023-04-03T11:15:52;9.05;;;4.10;;
77417;SDS011;66490;51.484;0.026;2023-04-03T11:18:48;9.57;;;4.35;;
77417;SDS011;66490;51.484;0.026;2023-04-03T11:21:34;9.35;;;3.65;;
77417;SDS011;66490;51.484;0.026;2023-04-03T11:24:23;12.37;;;3.70;;
77417;SDS011;66490;51.484;0.026;2023-04-03T11:27:16;8.50;;;3.55;;
77417;SDS011;66490;51.484;0.026;2023-04-03T11:30:02;7.07;;;3.30;;
77417;SDS011;66490;51.484;0.026;2023-04-03T11:35:37;7.90;;;3.45;;
77417;SDS011;66490;51.484;0.026;2023-04-03T11:38:32;7.73;;;3.63;;
77417;SDS011;66490;51.484;0.026;2023-04-03T11:41:25;8.95;;;3.60;;
77417;SDS011;66490;51.484;0.026;2023-04-03T11:47:09;8.43;;;3.35;;
77417;SDS011;66490;51.484;0.026;2023-04-03T11:58:15;5.90;;;3.28;;
77417;SDS011;66490;51.484;0.026;2023-04-03T12:01:10;7.28;;;3.70;;
77417;SDS011;66490;51.484;0.026;2023-04-03T12:04:13;7.25;;;2.70;;
77417;SDS011;66490;51.484;0.026;2023-04-03T12:07:13;7.57;;;3.00;;
77417;SDS011;66490;51.484;0.026;2023-04-03T12:09:58;6.03;;;2.97;;
77417;SDS011;66490;51.484;0.026;2023-04-03T12:12:54;7.20;;;2.88;;
77417;SDS011;66490;51.484;0.026;2023-04-03T12:18:55;7.57;;;3.17;;
77417;SDS011;66490;51.484;0.026;2023-04-03T12:24:43;7.80;;;2.30;;
77417;SDS011;66490;51.484;0.026;2023-04-03T12:27:28;6.45;;;2.35;;
77417;SDS011;66490;51.484;0.026;2023-04-03T12:30:15;5.43;;;2.55;;
77417;SDS011;66490;51.484;0.026;2023-04-03T12:35:51;6.83;;;2.67;;
77417;SDS011;66490;51.484;0.026;2023-04-03T12:38:54;5.47;;;2.17;;
77417;SDS011;66490;51.484;0.026;2023-04-03T12:44:34;6.93;;;3.05;;
77417;SDS011;66490;51.484;0.026;2023-04-03T12:47:36;6.32;;;3.00;;
77417;SDS011;66490;51.484;0.026;2023-04-03T12:50:27;6.20;;;2.40;;
77417;SDS011;66490;51.484;0.026;2023-04-03T12:55:58;7.32;;;2.65;;
77417;SDS011;66490;51.484;0.026;2023-04-03T13:02:10;5.20;;;2.63;;
77417;SDS011;66490;51.484;0.026;2023-04-03T13:05:04;5.10;;;2.30;;
77417;SDS011;66490;51.484;0.026;2023-04-03T13:08:02;6.90;;;2.88;;
77417;SDS011;66490;51.484;0.026;2023-04-03T13:13:36;6.35;;;2.30;;
77417;SDS011;66490;51.484;0.026;2023-04-03T13:16:21;6.35;;;2.10;;
77417;SDS011;66490;51.484;0.026;2023-04-03T13:19:05;5.23;;;2.10;;
77417;SDS011;66490;51.484;0.026;2023-04-03T13:21:50;6.30;;;2.35;;
77417;SDS011;66490;51.484;0.026;2023-04-03T13:24:37;5.00;;;2.35;;
77417;SDS011;66490;51.484;0.026;2023-04-03T13:27:22;5.10;;;2.53;;
77417;SDS011;66490;51.484;0.026;2023-04-03T13:30:30;6.32;;;2.70;;
77417;SDS011;66490;51.484;0.026;2023-04-03T13:33:20;6.27;;;3.37;;
77417;SDS011;66490;51.484;0.026;2023-04-03T13:36:07;4.93;;;2.13;;
77417;SDS011;66490;51.484;0.026;2023-04-03T13:39:26;5.30;;;1.80;;
77417;SDS011;66490;51.484;0.026;2023-04-03T13:42:20;6.40;;;1.88;;
77417;SDS011;66490;51.484;0.026;2023-04-03T13:45:21;4.43;;;1.85;;
77417;SDS011;66490;51.484;0.026;2023-04-03T13:48:09;5.57;;;2.03;;
77417;SDS011;66490;51.484;0.026;2023-04-03T13:51:02;7.95;;;2.70;;
77417;SDS011;66490;51.484;0.026;2023-04-03T13:53:52;4.85;;;2.50;;
77417;SDS011;66490;51.484;0.026;2023-04-03T13:56:37;5.72;;;2.55;;
77417;SDS011;66490;51.484;0.026;2023-04-03T13:59:43;7.40;;;2.97;;
77417;SDS011;66490;51.484;0.026;2023-04-03T14:02:31;6.63;;;2.83;;
77417;SDS011;66490;51.484;0.026;2023-04-03T14:05:15;8.13;;;3.00;;
77417;SDS011;66490;51.484;0.026;2023-04-03T14:08:01;7.45;;;2.80;;
77417;SDS011;66490;51.484;0.026;2023-04-03T14:10:46;5.07;;;2.53;;
77417;SDS011;66490;51.484;0.026;2023-04-03T14:13:30;7.10;;;3.35;;
77417;SDS011;66490;51.484;0.026;2023-04-03T14:16:16;6.67;;;3.20;;
77417;SDS011;66490;51.484;0.026;2023-04-03T14:19:02;5.47;;;3.05;;
77417;SDS011;66490;51.484;0.026;2023-04-03T14:21:46;8.45;;;3.38;;
77417;SDS011;66490;51.484;0.026;2023-04-03T14:24:30;7.43;;;3.42;;
77417;SDS011;66490;51.484;0.026;2023-04-03T14:27:21;7.05;;;2.97;;
77417;SDS011;66490;51.484;0.026;2023-04-03T14:30:07;7.23;;;3.07;;
77417;SDS011;66490;51.484;0.026;2023-04-03T14:32:52;7.07;;;3.58;;
77417;SDS011;66490;51.484;0.026;2023-04-03T14:35:38;6.95;;;3.58;;
77417;SDS011;66490;51.484;0.026;2023-04-03T14:38:24;6.93;;;3.42;;
77417;SDS011;66490;51.484;0.026;2023-04-03T14:41:09;7.70;;;3.70;;
77417;SDS011;66490;51.484;0.026;2023-04-03T14:43:54;9.97;;;4.00;;
77417;SDS011;66490;51.484;0.026;2023-04-03T14:46:39;7.82;;;3.83;;
77417;SDS011;66490;51.484;0.026;2023-04-03T14:49:24;7.07;;;3.38;;
77417;SDS011;66490;51.484;0.026;2023-04-03T14:52:16;6.45;;;3.33;;
77417;SDS011;66490;51.484;0.026;2023-04-03T14:55:03;6.70;;;3.50;;
77417;SDS011;66490;51.484;0.026;2023-04-03T14:57:47;8.23;;;3.50;;
77417;SDS011;66490;51.484;0.026;2023-04-03T15:00:31;6.95;;;3.30;;
77417;SDS011;66490;51.484;0.026;2023-04-03T15:03:19;7.15;;;3.70;;
77417;SDS011;66490;51.484;0.026;2023-04-03T15:06:04;8.38;;;3.97;;
77417;SDS011;66490;51.484;0.026;2023-04-03T15:08:48;5.82;;;3.22;;
77417;SDS011;66490;51.484;0.026;2023-04-03T15:11:35;7.13;;;2.90;;
77417;SDS011;66490;51.484;0.026;2023-04-03T15:14:19;5.85;;;2.60;;
77417;SDS011;66490;51.484;0.026;2023-04-03T15:17:04;7.03;;;3.05;;
77417;SDS011;66490;51.484;0.026;2023-04-03T15:19:48;5.82;;;2.90;;
77417;SDS011;66490;51.484;0.026;2023-04-03T15:22:32;5.95;;;2.97;;
77417;SDS011;66490;51.484;0.026;2023-04-03T15:25:16;9.27;;;2.57;;
77417;SDS011;66490;51.484;0.026;2023-04-03T15:28:00;7.80;;;3.22;;
77417;SDS011;66490;51.484;0.026;2023-04-03T15:30:44;6.85;;;2.55;;
77417;SDS011;66490;51.484;0.026;2023-04-03T15:33:27;8.07;;;2.80;;
77417;SDS011;66490;51.484;0.026;2023-04-03T15:36:11;6.90;;;2.85;;
77417;SDS011;66490;51.484;0.026;2023-04-03T15:38:55;6.00;;;3.10;;
77417;SDS011;66490;51.484;0.026;2023-04-03T15:41:39;7.15;;;2.95;;
77417;SDS011;66490;51.484;0.026;2023-04-03T15:44:23;7.07;;;3.17;;
77417;SDS011;66490;51.484;0.026;2023-04-03T15:47:10;7.45;;;3.08;;
77417;SDS011;66490;51.484;0.026;2023-04-03T15:49:54;6.45;;;3.15;;
77417;SDS011;66490;51.484;0.026;2023-04-03T15:52:39;6.77;;;2.57;;
77417;SDS011;66490;51.484;0.026;2023-04-03T15:55:26;7.50;;;3.45;;
77417;SDS011;66490;51.484;0.026;2023-04-03T15:58:11;7.72;;;2.90;;
77417;SDS011;66490;51.484;0.026;2023-04-03T16:00:55;6.50;;;3.10;;
77417;SDS011;66490;51.484;0.026;2023-04-03T16:03:40;6.93;;;2.50;;
77417;SDS011;66490;51.484;0.026;2023-04-03T16:06:30;6.27;;;2.17;;
77417;SDS011;66490;51.484;0.026;2023-04-03T16:09:15;6.00;;;2.03;;
77417;SDS011;66490;51.484;0.026;2023-04-03T16:11:59;7.35;;;2.67;;
77417;SDS011;66490;51.484;0.026;2023-04-03T16:14:44;6.72;;;2.40;;
77417;SDS011;66490;51.484;0.026;2023-04-03T16:17:28;7.93;;;2.60;;
77417;SDS011;66490;51.484;0.026;2023-04-03T16:20:12;8.00;;;2.53;;
77417;SDS011;66490;51.484;0.026;2023-04-03T16:22:57;5.35;;;2.30;;
77417;SDS011;66490;51.484;0.026;2023-04-03T16:25:45;6.30;;;2.17;;
77417;SDS011;66490;51.484;0.026;2023-04-03T16:28:29;6.63;;;2.42;;
77417;SDS011;66490;51.484;0.026;2023-04-03T16:31:13;5.57;;;2.20;;
77417;SDS011;66490;51.484;0.026;2023-04-03T16:33:57;6.00;;;2.47;;
77417;SDS011;66490;51.484;0.026;2023-04-03T16:36:41;7.68;;;2.50;;
77417;SDS011;66490;51.484;0.026;2023-04-03T16:39:26;5.05;;;1.80;;
77417;SDS011;66490;51.484;0.026;2023-04-03T16:42:10;6.25;;;2.10;;
77417;SDS011;66490;51.484;0.026;2023-04-03T16:44:54;5.32;;;1.95;;
77417;SDS011;66490;51.484;0.026;2023-04-03T16:47:38;5.60;;;2.20;;
77417;SDS011;66490;51.484;0.026;2023-04-03T16:50:22;7.38;;;2.55;;
77417;SDS011;66490;51.484;0.026;2023-04-03T16:53:06;7.82;;;2.65;;
77417;SDS011;66490;51.484;0.026;2023-04-03T16:55:53;7.03;;;2.45;;
77417;SDS011;66490;51.484;0.026;2023-04-03T16:58:39;5.47;;;2.33;;
77417;SDS011;66490;51.484;0.026;2023-04-03T17:01:23;5.10;;;2.10;;
77417;SDS011;66490;51.484;0.026;2023-04-03T17:04:07;10.30;;;2.78;;
77417;SDS011;66490;51.484;0.026;2023-04-03T17:06:52;6.47;;;2.13;;
77417;SDS011;66490;51.484;0.026;2023-04-03T17:09:36;7.32;;;1.95;;
77417;SDS011;66490;51.484;0.026;2023-04-03T17:12:20;5.53;;;2.05;;
77417;SDS011;66490;51.484;0.026;2023-04-03T17:15:05;6.90;;;2.27;;
77417;SDS011;66490;51.484;0.026;2023-04-03T17:17:50;7.93;;;1.85;;
77417;SDS011;66490;51.484;0.026;2023-04-03T17:20:34;6.68;;;1.73;;
77417;SDS011;66490;51.484;0.026;2023-04-03T17:23:21;6.35;;;2.08;;
77417;SDS011;66490;51.484;0.026;2023-04-03T17:26:05;6.90;;;1.45;;
77417;SDS011;66490;51.484;0.026;2023-04-03T17:28:49;6.87;;;1.83;;
77417;SDS011;66490;51.484;0.026;2023-04-03T17:31:33;7.93;;;2.28;;
77417;SDS011;66490;51.484;0.026;2023-04-03T17:34:17;6.00;;;1.58;;
77417;SDS011;66490;51.484;0.026;2023-04-03T17:37:01;6.93;;;1.85;;
77417;SDS011;66490;51.484;0.026;2023-04-03T17:39:45;4.82;;;1.38;;
77417;SDS011;66490;51.484;0.026;2023-04-03T17:42:29;5.40;;;1.40;;
77417;SDS011;66490;51.484;0.026;2023-04-03T17:45:15;7.63;;;2.17;;
77417;SDS011;66490;51.484;0.026;2023-04-03T17:47:58;7.20;;;2.10;;
77417;SDS011;66490;51.484;0.026;2023-04-03T17:50:42;7.10;;;2.15;;
77417;SDS011;66490;51.484;0.026;2023-04-03T17:53:26;9.90;;;2.22;;
77417;SDS011;66490;51.484;0.026;2023-04-03T17:56:11;9.70;;;2.17;;
77417;SDS011;66490;51.484;0.026;2023-04-03T17:58:56;7.03;;;1.70;;
77417;SDS011;66490;51.484;0.026;2023-04-03T18:01:44;6.63;;;2.15;;
77417;SDS011;66490;51.484;0.026;2023-04-03T18:04:28;8.05;;;1.35;;